Terminal Aerodrome Forecast
Issued by NWS Newport/Morehead City, NC

Home | Current Version | Previous Version | Graphics & Text | Print | Product List | Glossary On
Versions: 1 2 3 4 5 6 7 8 9 10 11 12 13 14 15 16 17 18 19 20 21
000
FTUS42 KMHX 260900 AAA
TAFEWN
TAF AMD
KEWN 260902Z 2609/2706 00000KT P6SM BKN020
     FM261000 23003KT 4SM BR BKN010
     FM261300 25005KT P6SM SCT020
     FM261700 30005KT P6SM SCT040
     FM262200 18005KT P6SM SCT040=

USA.gov is the U.S. government's official web portal to all federal, state and local government web resources and services.